sensor_id;sensor_type;location;lat;lon;timestamp;P1;durP1;ratioP1;P2;durP2;ratioP2
19877;SDS011;10101;52.204;9.910;2024-01-07T00:00:17;11.57;;;7.07;;
19877;SDS011;10101;52.204;9.910;2024-01-07T00:02:44;13.67;;;7.10;;
19877;SDS011;10101;52.204;9.910;2024-01-07T00:05:11;14.47;;;7.70;;
19877;SDS011;10101;52.204;9.910;2024-01-07T00:07:38;10.70;;;6.50;;
19877;SDS011;10101;52.204;9.910;2024-01-07T00:10:06;13.10;;;6.53;;
19877;SDS011;10101;52.204;9.910;2024-01-07T00:12:34;12.33;;;7.57;;
19877;SDS011;10101;52.204;9.910;2024-01-07T00:15:00;12.73;;;6.90;;
19877;SDS011;10101;52.204;9.910;2024-01-07T00:17:27;11.20;;;6.40;;
19877;SDS011;10101;52.204;9.910;2024-01-07T00:19:54;11.47;;;6.87;;
19877;SDS011;10101;52.204;9.910;2024-01-07T00:22:21;13.77;;;7.20;;
19877;SDS011;10101;52.204;9.910;2024-01-07T00:24:47;10.87;;;6.67;;
19877;SDS011;10101;52.204;9.910;2024-01-07T00:27:15;12.43;;;6.63;;
19877;SDS011;10101;52.204;9.910;2024-01-07T00:29:42;14.40;;;7.50;;
19877;SDS011;10101;52.204;9.910;2024-01-07T00:32:09;11.17;;;7.23;;
19877;SDS011;10101;52.204;9.910;2024-01-07T00:34:35;11.27;;;7.30;;
19877;SDS011;10101;52.204;9.910;2024-01-07T00:37:02;10.77;;;6.73;;
19877;SDS011;10101;52.204;9.910;2024-01-07T00:39:29;11.13;;;6.33;;
19877;SDS011;10101;52.204;9.910;2024-01-07T00:41:56;10.20;;;6.80;;
19877;SDS011;10101;52.204;9.910;2024-01-07T00:44:24;10.33;;;6.43;;
19877;SDS011;10101;52.204;9.910;2024-01-07T00:46:51;10.87;;;6.80;;
19877;SDS011;10101;52.204;9.910;2024-01-07T00:49:17;11.57;;;6.13;;
19877;SDS011;10101;52.204;9.910;2024-01-07T00:51:44;9.10;;;6.20;;
19877;SDS011;10101;52.204;9.910;2024-01-07T00:54:11;12.80;;;6.97;;
19877;SDS011;10101;52.204;9.910;2024-01-07T00:56:38;10.57;;;6.87;;
19877;SDS011;10101;52.204;9.910;2024-01-07T00:59:04;10.30;;;6.37;;
19877;SDS011;10101;52.204;9.910;2024-01-07T01:01:32;11.17;;;6.67;;
19877;SDS011;10101;52.204;9.910;2024-01-07T01:03:59;11.07;;;7.00;;
19877;SDS011;10101;52.204;9.910;2024-01-07T01:06:26;11.47;;;6.97;;
19877;SDS011;10101;52.204;9.910;2024-01-07T01:08:53;10.30;;;7.03;;
19877;SDS011;10101;52.204;9.910;2024-01-07T01:11:19;12.63;;;7.00;;
19877;SDS011;10101;52.204;9.910;2024-01-07T01:13:46;11.33;;;7.27;;
19877;SDS011;10101;52.204;9.910;2024-01-07T01:16:13;10.93;;;7.10;;
19877;SDS011;10101;52.204;9.910;2024-01-07T01:18:41;13.03;;;7.13;;
19877;SDS011;10101;52.204;9.910;2024-01-07T01:21:07;11.93;;;7.17;;
19877;SDS011;10101;52.204;9.910;2024-01-07T01:23:35;12.37;;;8.00;;
19877;SDS011;10101;52.204;9.910;2024-01-07T01:26:02;13.97;;;8.10;;
19877;SDS011;10101;52.204;9.910;2024-01-07T01:28:29;13.70;;;7.90;;
19877;SDS011;10101;52.204;9.910;2024-01-07T01:30:56;11.37;;;7.00;;
19877;SDS011;10101;52.204;9.910;2024-01-07T01:33:23;10.80;;;6.97;;
19877;SDS011;10101;52.204;9.910;2024-01-07T01:35:51;11.27;;;6.63;;
19877;SDS011;10101;52.204;9.910;2024-01-07T01:38:17;12.77;;;7.07;;
19877;SDS011;10101;52.204;9.910;2024-01-07T01:40:44;12.80;;;7.43;;
19877;SDS011;10101;52.204;9.910;2024-01-07T01:43:21;11.23;;;7.30;;
19877;SDS011;10101;52.204;9.910;2024-01-07T01:45:49;12.37;;;7.43;;
19877;SDS011;10101;52.204;9.910;2024-01-07T01:48:16;12.43;;;7.53;;
19877;SDS011;10101;52.204;9.910;2024-01-07T01:50:42;13.27;;;7.37;;
19877;SDS011;10101;52.204;9.910;2024-01-07T01:53:11;13.07;;;7.23;;
19877;SDS011;10101;52.204;9.910;2024-01-07T01:55:37;13.87;;;7.03;;
19877;SDS011;10101;52.204;9.910;2024-01-07T01:58:04;11.40;;;6.90;;
19877;SDS011;10101;52.204;9.910;2024-01-07T02:00:33;13.33;;;7.47;;
19877;SDS011;10101;52.204;9.910;2024-01-07T02:03:00;12.73;;;7.23;;
19877;SDS011;10101;52.204;9.910;2024-01-07T02:05:26;10.43;;;6.70;;
19877;SDS011;10101;52.204;9.910;2024-01-07T02:07:54;11.47;;;6.47;;
19877;SDS011;10101;52.204;9.910;2024-01-07T02:10:22;11.57;;;6.30;;
19877;SDS011;10101;52.204;9.910;2024-01-07T02:12:49;11.37;;;6.33;;
19877;SDS011;10101;52.204;9.910;2024-01-07T02:15:16;11.27;;;6.30;;
19877;SDS011;10101;52.204;9.910;2024-01-07T02:17:43;11.47;;;6.00;;
19877;SDS011;10101;52.204;9.910;2024-01-07T02:20:10;8.70;;;5.87;;
19877;SDS011;10101;52.204;9.910;2024-01-07T02:22:36;10.07;;;5.80;;
19877;SDS011;10101;52.204;9.910;2024-01-07T02:25:05;8.77;;;4.97;;
19877;SDS011;10101;52.204;9.910;2024-01-07T02:27:33;9.27;;;4.97;;
19877;SDS011;10101;52.204;9.910;2024-01-07T02:30:00;9.30;;;5.43;;
19877;SDS011;10101;52.204;9.910;2024-01-07T02:32:27;9.33;;;5.33;;
19877;SDS011;10101;52.204;9.910;2024-01-07T02:34:53;10.17;;;5.60;;
19877;SDS011;10101;52.204;9.910;2024-01-07T02:37:20;8.50;;;4.90;;
19877;SDS011;10101;52.204;9.910;2024-01-07T02:39:47;9.77;;;5.13;;
19877;SDS011;10101;52.204;9.910;2024-01-07T02:42:15;11.13;;;5.60;;
19877;SDS011;10101;52.204;9.910;2024-01-07T02:44:42;8.07;;;5.30;;
19877;SDS011;10101;52.204;9.910;2024-01-07T02:47:08;9.50;;;4.93;;
19877;SDS011;10101;52.204;9.910;2024-01-07T02:49:35;8.97;;;4.80;;
19877;SDS011;10101;52.204;9.910;2024-01-07T02:52:02;10.90;;;5.20;;
19877;SDS011;10101;52.204;9.910;2024-01-07T02:54:29;8.13;;;4.80;;
19877;SDS011;10101;52.204;9.910;2024-01-07T02:56:56;7.40;;;4.87;;
19877;SDS011;10101;52.204;9.910;2024-01-07T02:59:24;10.07;;;5.60;;
19877;SDS011;10101;52.204;9.910;2024-01-07T03:01:50;8.13;;;4.73;;
19877;SDS011;10101;52.204;9.910;2024-01-07T03:04:17;11.77;;;5.37;;
19877;SDS011;10101;52.204;9.910;2024-01-07T03:06:44;8.27;;;5.07;;
19877;SDS011;10101;52.204;9.910;2024-01-07T03:09:11;8.97;;;5.40;;
19877;SDS011;10101;52.204;9.910;2024-01-07T03:11:38;8.30;;;5.00;;
19877;SDS011;10101;52.204;9.910;2024-01-07T03:14:06;10.77;;;5.80;;
19877;SDS011;10101;52.204;9.910;2024-01-07T03:16:34;7.97;;;5.10;;
19877;SDS011;10101;52.204;9.910;2024-01-07T03:19:00;7.90;;;4.93;;
19877;SDS011;10101;52.204;9.910;2024-01-07T03:21:29;11.67;;;5.20;;
19877;SDS011;10101;52.204;9.910;2024-01-07T03:23:56;9.13;;;5.23;;
19877;SDS011;10101;52.204;9.910;2024-01-07T03:26:23;7.87;;;4.73;;
19877;SDS011;10101;52.204;9.910;2024-01-07T03:28:49;8.57;;;5.17;;
19877;SDS011;10101;52.204;9.910;2024-01-07T03:31:18;8.70;;;5.13;;
19877;SDS011;10101;52.204;9.910;2024-01-07T03:33:47;9.93;;;4.77;;
19877;SDS011;10101;52.204;9.910;2024-01-07T03:36:14;8.13;;;5.07;;
19877;SDS011;10101;52.204;9.910;2024-01-07T03:38:41;7.37;;;4.27;;
19877;SDS011;10101;52.204;9.910;2024-01-07T03:41:08;10.77;;;5.10;;
19877;SDS011;10101;52.204;9.910;2024-01-07T03:43:35;7.57;;;4.70;;
19877;SDS011;10101;52.204;9.910;2024-01-07T03:46:01;7.53;;;4.37;;
19877;SDS011;10101;52.204;9.910;2024-01-07T03:48:28;7.43;;;4.13;;
19877;SDS011;10101;52.204;9.910;2024-01-07T03:50:56;8.27;;;4.83;;
19877;SDS011;10101;52.204;9.910;2024-01-07T03:53:23;6.47;;;4.10;;
19877;SDS011;10101;52.204;9.910;2024-01-07T03:55:49;7.50;;;4.10;;
19877;SDS011;10101;52.204;9.910;2024-01-07T03:58:16;7.40;;;4.17;;
19877;SDS011;10101;52.204;9.910;2024-01-07T04:00:43;6.83;;;4.40;;
19877;SDS011;10101;52.204;9.910;2024-01-07T04:03:10;5.77;;;3.83;;
19877;SDS011;10101;52.204;9.910;2024-01-07T04:05:36;6.07;;;3.47;;
19877;SDS011;10101;52.204;9.910;2024-01-07T04:08:05;5.07;;;3.50;;
19877;SDS011;10101;52.204;9.910;2024-01-07T04:10:35;5.27;;;3.60;;
19877;SDS011;10101;52.204;9.910;2024-01-07T04:13:02;4.83;;;3.40;;
19877;SDS011;10101;52.204;9.910;2024-01-07T04:15:29;7.40;;;3.57;;
19877;SDS011;10101;52.204;9.910;2024-01-07T04:17:56;6.77;;;3.27;;
19877;SDS011;10101;52.204;9.910;2024-01-07T04:20:23;5.20;;;3.10;;
19877;SDS011;10101;52.204;9.910;2024-01-07T04:22:50;5.47;;;3.50;;
19877;SDS011;10101;52.204;9.910;2024-01-07T04:25:18;4.90;;;3.13;;
19877;SDS011;10101;52.204;9.910;2024-01-07T04:27:45;6.90;;;3.20;;
19877;SDS011;10101;52.204;9.910;2024-01-07T04:30:11;5.40;;;2.93;;
19877;SDS011;10101;52.204;9.910;2024-01-07T04:32:38;5.90;;;3.10;;
19877;SDS011;10101;52.204;9.910;2024-01-07T04:35:05;3.80;;;2.53;;
19877;SDS011;10101;52.204;9.910;2024-01-07T04:37:32;3.57;;;2.70;;
19877;SDS011;10101;52.204;9.910;2024-01-07T04:39:59;5.33;;;2.90;;
19877;SDS011;10101;52.204;9.910;2024-01-07T04:42:27;4.10;;;2.70;;
19877;SDS011;10101;52.204;9.910;2024-01-07T04:44:54;4.10;;;2.60;;
19877;SDS011;10101;52.204;9.910;2024-01-07T04:47:28;3.33;;;2.27;;
19877;SDS011;10101;52.204;9.910;2024-01-07T04:49:56;3.40;;;2.23;;
19877;SDS011;10101;52.204;9.910;2024-01-07T04:52:23;4.37;;;2.33;;
19877;SDS011;10101;52.204;9.910;2024-01-07T04:54:50;4.97;;;2.50;;
19877;SDS011;10101;52.204;9.910;2024-01-07T04:57:17;2.77;;;2.20;;
19877;SDS011;10101;52.204;9.910;2024-01-07T04:59:45;4.53;;;2.17;;
19877;SDS011;10101;52.204;9.910;2024-01-07T05:02:13;4.80;;;2.80;;
19877;SDS011;10101;52.204;9.910;2024-01-07T05:04:40;4.93;;;2.50;;
19877;SDS011;10101;52.204;9.910;2024-01-07T05:07:07;5.10;;;2.23;;
19877;SDS011;10101;52.204;9.910;2024-01-07T05:09:34;3.13;;;2.10;;
19877;SDS011;10101;52.204;9.910;2024-01-07T05:12:01;3.10;;;2.10;;
19877;SDS011;10101;52.204;9.910;2024-01-07T05:14:27;5.13;;;2.40;;
19877;SDS011;10101;52.204;9.910;2024-01-07T05:16:56;7.10;;;2.70;;
19877;SDS011;10101;52.204;9.910;2024-01-07T05:19:22;4.73;;;2.33;;
19877;SDS011;10101;52.204;9.910;2024-01-07T05:21:49;2.77;;;2.00;;
19877;SDS011;10101;52.204;9.910;2024-01-07T05:24:16;3.83;;;2.30;;
19877;SDS011;10101;52.204;9.910;2024-01-07T05:26:43;4.30;;;1.73;;
19877;SDS011;10101;52.204;9.910;2024-01-07T05:29:10;3.40;;;2.10;;
19877;SDS011;10101;52.204;9.910;2024-01-07T05:31:37;2.90;;;2.20;;
19877;SDS011;10101;52.204;9.910;2024-01-07T05:34:05;4.17;;;2.13;;
19877;SDS011;10101;52.204;9.910;2024-01-07T05:36:32;4.63;;;2.10;;
19877;SDS011;10101;52.204;9.910;2024-01-07T05:38:59;3.80;;;2.30;;
19877;SDS011;10101;52.204;9.910;2024-01-07T05:41:26;2.60;;;1.97;;
19877;SDS011;10101;52.204;9.910;2024-01-07T05:43:52;4.40;;;2.40;;
19877;SDS011;10101;52.204;9.910;2024-01-07T05:46:19;3.03;;;2.10;;
19877;SDS011;10101;52.204;9.910;2024-01-07T05:48:46;3.57;;;2.30;;
19877;SDS011;10101;52.204;9.910;2024-01-07T05:51:15;4.30;;;2.20;;
19877;SDS011;10101;52.204;9.910;2024-01-07T05:53:43;3.57;;;2.27;;
19877;SDS011;10101;52.204;9.910;2024-01-07T05:56:10;3.10;;;2.10;;
19877;SDS011;10101;52.204;9.910;2024-01-07T05:58:37;2.87;;;2.27;;
19877;SDS011;10101;52.204;9.910;2024-01-07T06:01:04;3.80;;;2.10;;
19877;SDS011;10101;52.204;9.910;2024-01-07T06:03:32;2.83;;;2.10;;
19877;SDS011;10101;52.204;9.910;2024-01-07T06:05:59;3.50;;;2.07;;
19877;SDS011;10101;52.204;9.910;2024-01-07T06:08:27;4.83;;;2.10;;
19877;SDS011;10101;52.204;9.910;2024-01-07T06:10:53;3.77;;;2.10;;
19877;SDS011;10101;52.204;9.910;2024-01-07T06:13:20;5.13;;;2.40;;
19877;SDS011;10101;52.204;9.910;2024-01-07T06:15:47;2.90;;;2.07;;
19877;SDS011;10101;52.204;9.910;2024-01-07T06:18:13;4.50;;;2.40;;
19877;SDS011;10101;52.204;9.910;2024-01-07T06:20:40;2.87;;;2.30;;
19877;SDS011;10101;52.204;9.910;2024-01-07T06:23:07;3.23;;;2.37;;
19877;SDS011;10101;52.204;9.910;2024-01-07T06:25:35;4.87;;;2.30;;
19877;SDS011;10101;52.204;9.910;2024-01-07T06:28:02;4.53;;;2.43;;
19877;SDS011;10101;52.204;9.910;2024-01-07T06:30:29;4.93;;;2.20;;
19877;SDS011;10101;52.204;9.910;2024-01-07T06:32:55;4.30;;;2.80;;
19877;SDS011;10101;52.204;9.910;2024-01-07T06:35:22;3.77;;;2.30;;
19877;SDS011;10101;52.204;9.910;2024-01-07T06:37:49;3.33;;;2.40;;
19877;SDS011;10101;52.204;9.910;2024-01-07T06:40:16;5.13;;;2.63;;
19877;SDS011;10101;52.204;9.910;2024-01-07T06:42:44;3.47;;;2.60;;
19877;SDS011;10101;52.204;9.910;2024-01-07T06:45:11;4.97;;;2.50;;
19877;SDS011;10101;52.204;9.910;2024-01-07T06:47:38;3.90;;;2.50;;
19877;SDS011;10101;52.204;9.910;2024-01-07T06:50:05;3.53;;;2.50;;
19877;SDS011;10101;52.204;9.910;2024-01-07T06:52:32;4.77;;;2.60;;
19877;SDS011;10101;52.204;9.910;2024-01-07T06:54:59;3.70;;;2.47;;
19877;SDS011;10101;52.204;9.910;2024-01-07T06:57:26;3.10;;;2.43;;
19877;SDS011;10101;52.204;9.910;2024-01-07T06:59:53;5.13;;;2.40;;
19877;SDS011;10101;52.204;9.910;2024-01-07T07:02:20;4.90;;;2.80;;
19877;SDS011;10101;52.204;9.910;2024-01-07T07:04:47;4.53;;;2.73;;
19877;SDS011;10101;52.204;9.910;2024-01-07T07:07:15;5.00;;;2.50;;
19877;SDS011;10101;52.204;9.910;2024-01-07T07:09:42;5.47;;;2.50;;
19877;SDS011;10101;52.204;9.910;2024-01-07T07:12:11;4.90;;;2.97;;
19877;SDS011;10101;52.204;9.910;2024-01-07T07:14:38;3.83;;;2.63;;
19877;SDS011;10101;52.204;9.910;2024-01-07T07:17:06;2.83;;;2.20;;
19877;SDS011;10101;52.204;9.910;2024-01-07T07:19:33;6.90;;;3.03;;
19877;SDS011;10101;52.204;9.910;2024-01-07T07:22:00;3.47;;;2.27;;
19877;SDS011;10101;52.204;9.910;2024-01-07T07:24:27;5.47;;;2.97;;
19877;SDS011;10101;52.204;9.910;2024-01-07T07:26:53;4.57;;;2.80;;
19877;SDS011;10101;52.204;9.910;2024-01-07T07:29:20;3.90;;;2.63;;
19877;SDS011;10101;52.204;9.910;2024-01-07T07:31:47;4.13;;;2.53;;
19877;SDS011;10101;52.204;9.910;2024-01-07T07:34:15;4.33;;;2.87;;
19877;SDS011;10101;52.204;9.910;2024-01-07T07:36:42;4.10;;;2.47;;
19877;SDS011;10101;52.204;9.910;2024-01-07T07:39:10;3.27;;;2.37;;
19877;SDS011;10101;52.204;9.910;2024-01-07T07:41:38;4.60;;;2.40;;
19877;SDS011;10101;52.204;9.910;2024-01-07T07:44:05;5.17;;;2.80;;
19877;SDS011;10101;52.204;9.910;2024-01-07T07:46:32;2.43;;;2.13;;
19877;SDS011;10101;52.204;9.910;2024-01-07T07:48:58;4.53;;;3.00;;
19877;SDS011;10101;52.204;9.910;2024-01-07T07:51:27;4.37;;;2.70;;
19877;SDS011;10101;52.204;9.910;2024-01-07T07:53:55;5.83;;;3.00;;
19877;SDS011;10101;52.204;9.910;2024-01-07T07:56:22;5.57;;;2.70;;
19877;SDS011;10101;52.204;9.910;2024-01-07T07:58:48;5.17;;;2.60;;
19877;SDS011;10101;52.204;9.910;2024-01-07T08:01:16;5.60;;;2.73;;
19877;SDS011;10101;52.204;9.910;2024-01-07T08:03:44;4.03;;;2.63;;
19877;SDS011;10101;52.204;9.910;2024-01-07T08:06:11;3.53;;;2.60;;
19877;SDS011;10101;52.204;9.910;2024-01-07T08:08:39;6.03;;;2.60;;
19877;SDS011;10101;52.204;9.910;2024-01-07T08:11:06;4.53;;;2.80;;
19877;SDS011;10101;52.204;9.910;2024-01-07T08:13:34;4.27;;;2.60;;
19877;SDS011;10101;52.204;9.910;2024-01-07T08:16:01;4.53;;;3.10;;
19877;SDS011;10101;52.204;9.910;2024-01-07T08:18:29;4.50;;;2.47;;
19877;SDS011;10101;52.204;9.910;2024-01-07T08:20:56;6.03;;;2.83;;
19877;SDS011;10101;52.204;9.910;2024-01-07T08:23:23;3.50;;;2.77;;
19877;SDS011;10101;52.204;9.910;2024-01-07T08:25:51;4.07;;;2.60;;
19877;SDS011;10101;52.204;9.910;2024-01-07T08:28:18;4.37;;;2.43;;
19877;SDS011;10101;52.204;9.910;2024-01-07T08:30:45;4.50;;;2.80;;
19877;SDS011;10101;52.204;9.910;2024-01-07T08:33:12;4.23;;;2.77;;
19877;SDS011;10101;52.204;9.910;2024-01-07T08:35:39;4.23;;;2.83;;
19877;SDS011;10101;52.204;9.910;2024-01-07T08:38:07;3.83;;;2.77;;
19877;SDS011;10101;52.204;9.910;2024-01-07T08:40:33;3.80;;;2.47;;
19877;SDS011;10101;52.204;9.910;2024-01-07T08:43:02;6.47;;;2.70;;
19877;SDS011;10101;52.204;9.910;2024-01-07T08:45:29;4.93;;;2.60;;
19877;SDS011;10101;52.204;9.910;2024-01-07T08:47:56;4.40;;;2.80;;
19877;SDS011;10101;52.204;9.910;2024-01-07T08:50:23;3.27;;;2.40;;
19877;SDS011;10101;52.204;9.910;2024-01-07T08:52:50;4.83;;;2.80;;
19877;SDS011;10101;52.204;9.910;2024-01-07T08:55:17;5.00;;;2.63;;
19877;SDS011;10101;52.204;9.910;2024-01-07T08:57:44;4.90;;;2.77;;
19877;SDS011;10101;52.204;9.910;2024-01-07T09:00:15;4.10;;;2.53;;
19877;SDS011;10101;52.204;9.910;2024-01-07T09:02:43;6.30;;;2.83;;
19877;SDS011;10101;52.204;9.910;2024-01-07T09:05:10;5.47;;;2.90;;
19877;SDS011;10101;52.204;9.910;2024-01-07T09:07:37;4.47;;;2.70;;
19877;SDS011;10101;52.204;9.910;2024-01-07T09:10:04;5.03;;;2.60;;
19877;SDS011;10101;52.204;9.910;2024-01-07T09:12:35;5.53;;;2.80;;
19877;SDS011;10101;52.204;9.910;2024-01-07T09:15:02;5.87;;;2.60;;
19877;SDS011;10101;52.204;9.910;2024-01-07T09:17:34;3.47;;;2.50;;
19877;SDS011;10101;52.204;9.910;2024-01-07T09:20:02;3.63;;;2.73;;
19877;SDS011;10101;52.204;9.910;2024-01-07T09:22:32;3.83;;;2.40;;
19877;SDS011;10101;52.204;9.910;2024-01-07T09:24:59;3.70;;;2.40;;
19877;SDS011;10101;52.204;9.910;2024-01-07T09:27:27;4.20;;;2.80;;
19877;SDS011;10101;52.204;9.910;2024-01-07T09:29:54;5.00;;;3.03;;
19877;SDS011;10101;52.204;9.910;2024-01-07T09:32:21;3.93;;;2.60;;
19877;SDS011;10101;52.204;9.910;2024-01-07T09:34:49;5.67;;;2.60;;
19877;SDS011;10101;52.204;9.910;2024-01-07T09:37:17;3.70;;;2.43;;
19877;SDS011;10101;52.204;9.910;2024-01-07T09:39:45;5.10;;;3.10;;
19877;SDS011;10101;52.204;9.910;2024-01-07T09:42:12;4.30;;;2.57;;
19877;SDS011;10101;52.204;9.910;2024-01-07T09:44:40;4.20;;;2.80;;
19877;SDS011;10101;52.204;9.910;2024-01-07T09:47:08;3.77;;;2.73;;
19877;SDS011;10101;52.204;9.910;2024-01-07T09:49:37;3.80;;;2.50;;
19877;SDS011;10101;52.204;9.910;2024-01-07T09:52:06;5.60;;;2.97;;
19877;SDS011;10101;52.204;9.910;2024-01-07T09:54:35;4.07;;;2.70;;
19877;SDS011;10101;52.204;9.910;2024-01-07T09:57:02;4.20;;;2.80;;
19877;SDS011;10101;52.204;9.910;2024-01-07T09:59:31;3.70;;;2.57;;
19877;SDS011;10101;52.204;9.910;2024-01-07T10:01:58;3.70;;;2.60;;
19877;SDS011;10101;52.204;9.910;2024-01-07T10:04:26;4.17;;;2.40;;
19877;SDS011;10101;52.204;9.910;2024-01-07T10:06:53;3.93;;;2.67;;
19877;SDS011;10101;52.204;9.910;2024-01-07T10:09:21;4.93;;;2.70;;
19877;SDS011;10101;52.204;9.910;2024-01-07T10:11:50;5.13;;;2.90;;
19877;SDS011;10101;52.204;9.910;2024-01-07T10:14:17;3.80;;;2.10;;
19877;SDS011;10101;52.204;9.910;2024-01-07T10:16:44;4.80;;;1.97;;
19877;SDS011;10101;52.204;9.910;2024-01-07T10:19:11;4.47;;;2.40;;
19877;SDS011;10101;52.204;9.910;2024-01-07T10:21:46;3.37;;;2.43;;
19877;SDS011;10101;52.204;9.910;2024-01-07T10:24:13;4.77;;;2.53;;
19877;SDS011;10101;52.204;9.910;2024-01-07T10:26:41;3.53;;;2.23;;
19877;SDS011;10101;52.204;9.910;2024-01-07T10:29:08;3.43;;;2.23;;
19877;SDS011;10101;52.204;9.910;2024-01-07T10:31:35;4.67;;;2.47;;
19877;SDS011;10101;52.204;9.910;2024-01-07T10:34:06;3.47;;;2.60;;
19877;SDS011;10101;52.204;9.910;2024-01-07T10:36:33;6.87;;;3.90;;
19877;SDS011;10101;52.204;9.910;2024-01-07T10:39:00;11.80;;;5.73;;
19877;SDS011;10101;52.204;9.910;2024-01-07T10:41:27;12.43;;;6.13;;
19877;SDS011;10101;52.204;9.910;2024-01-07T10:43:56;13.80;;;5.73;;
19877;SDS011;10101;52.204;9.910;2024-01-07T10:46:24;7.00;;;3.10;;
19877;SDS011;10101;52.204;9.910;2024-01-07T10:48:55;4.53;;;2.67;;
19877;SDS011;10101;52.204;9.910;2024-01-07T10:51:27;3.67;;;2.70;;
19877;SDS011;10101;52.204;9.910;2024-01-07T10:53:55;5.37;;;2.77;;
19877;SDS011;10101;52.204;9.910;2024-01-07T10:56:23;5.63;;;3.10;;
19877;SDS011;10101;52.204;9.910;2024-01-07T10:58:51;3.90;;;2.53;;
19877;SDS011;10101;52.204;9.910;2024-01-07T11:01:19;2.70;;;2.00;;
19877;SDS011;10101;52.204;9.910;2024-01-07T11:03:48;4.87;;;2.77;;
19877;SDS011;10101;52.204;9.910;2024-01-07T11:06:24;4.70;;;2.73;;
19877;SDS011;10101;52.204;9.910;2024-01-07T11:08:58;3.83;;;2.70;;
19877;SDS011;10101;52.204;9.910;2024-01-07T11:11:31;6.13;;;2.67;;
19877;SDS011;10101;52.204;9.910;2024-01-07T11:14:02;3.47;;;2.43;;
19877;SDS011;10101;52.204;9.910;2024-01-07T11:16:42;3.50;;;2.20;;
19877;SDS011;10101;52.204;9.910;2024-01-07T11:19:09;5.93;;;3.17;;
19877;SDS011;10101;52.204;9.910;2024-01-07T11:21:39;7.47;;;3.90;;
19877;SDS011;10101;52.204;9.910;2024-01-07T11:24:06;3.27;;;2.40;;
19877;SDS011;10101;52.204;9.910;2024-01-07T11:26:33;6.10;;;2.20;;
19877;SDS011;10101;52.204;9.910;2024-01-07T11:29:00;6.47;;;2.60;;
19877;SDS011;10101;52.204;9.910;2024-01-07T11:31:44;5.03;;;2.47;;
19877;SDS011;10101;52.204;9.910;2024-01-07T11:34:22;3.10;;;2.20;;
19877;SDS011;10101;52.204;9.910;2024-01-07T11:37:06;5.60;;;2.80;;
19877;SDS011;10101;52.204;9.910;2024-01-07T11:39:36;3.93;;;2.80;;
19877;SDS011;10101;52.204;9.910;2024-01-07T11:42:03;7.43;;;5.00;;
19877;SDS011;10101;52.204;9.910;2024-01-07T11:44:33;6.03;;;3.67;;
19877;SDS011;10101;52.204;9.910;2024-01-07T11:47:03;6.90;;;4.97;;
19877;SDS011;10101;52.204;9.910;2024-01-07T11:49:31;16.93;;;9.17;;
19877;SDS011;10101;52.204;9.910;2024-01-07T11:51:58;8.80;;;5.00;;
19877;SDS011;10101;52.204;9.910;2024-01-07T11:54:26;9.10;;;5.07;;
19877;SDS011;10101;52.204;9.910;2024-01-07T11:56:54;8.23;;;4.50;;
19877;SDS011;10101;52.204;9.910;2024-01-07T11:59:21;7.57;;;3.80;;
19877;SDS011;10101;52.204;9.910;2024-01-07T12:01:48;8.33;;;4.27;;
19877;SDS011;10101;52.204;9.910;2024-01-07T12:04:16;10.43;;;4.70;;
19877;SDS011;10101;52.204;9.910;2024-01-07T12:06:43;22.83;;;9.93;;
19877;SDS011;10101;52.204;9.910;2024-01-07T12:09:12;20.50;;;10.23;;
19877;SDS011;10101;52.204;9.910;2024-01-07T12:11:39;9.30;;;5.07;;
19877;SDS011;10101;52.204;9.910;2024-01-07T12:14:07;11.50;;;7.43;;
19877;SDS011;10101;52.204;9.910;2024-01-07T12:16:35;9.87;;;6.23;;
19877;SDS011;10101;52.204;9.910;2024-01-07T12:19:03;19.30;;;9.27;;
19877;SDS011;10101;52.204;9.910;2024-01-07T12:21:31;24.97;;;11.07;;
19877;SDS011;10101;52.204;9.910;2024-01-07T12:23:58;12.70;;;6.87;;
19877;SDS011;10101;52.204;9.910;2024-01-07T12:26:25;9.20;;;4.90;;
19877;SDS011;10101;52.204;9.910;2024-01-07T12:28:54;4.10;;;2.80;;
19877;SDS011;10101;52.204;9.910;2024-01-07T12:31:25;4.70;;;3.33;;
19877;SDS011;10101;52.204;9.910;2024-01-07T12:33:52;5.87;;;3.10;;
19877;SDS011;10101;52.204;9.910;2024-01-07T12:36:20;5.53;;;3.10;;
19877;SDS011;10101;52.204;9.910;2024-01-07T12:38:49;6.50;;;4.73;;
19877;SDS011;10101;52.204;9.910;2024-01-07T12:41:19;7.10;;;4.00;;
19877;SDS011;10101;52.204;9.910;2024-01-07T12:43:46;7.57;;;4.50;;
19877;SDS011;10101;52.204;9.910;2024-01-07T12:46:13;8.97;;;5.43;;
19877;SDS011;10101;52.204;9.910;2024-01-07T12:48:40;8.63;;;5.43;;
19877;SDS011;10101;52.204;9.910;2024-01-07T12:51:07;5.67;;;3.63;;
19877;SDS011;10101;52.204;9.910;2024-01-07T12:53:34;4.77;;;2.93;;
19877;SDS011;10101;52.204;9.910;2024-01-07T12:56:02;4.93;;;3.27;;
19877;SDS011;10101;52.204;9.910;2024-01-07T12:58:29;4.43;;;3.30;;
19877;SDS011;10101;52.204;9.910;2024-01-07T13:00:56;5.03;;;3.37;;
19877;SDS011;10101;52.204;9.910;2024-01-07T13:03:23;6.93;;;4.30;;
19877;SDS011;10101;52.204;9.910;2024-01-07T13:05:50;9.23;;;4.40;;
19877;SDS011;10101;52.204;9.910;2024-01-07T13:08:17;6.40;;;3.80;;
19877;SDS011;10101;52.204;9.910;2024-01-07T13:10:47;30.33;;;17.77;;
19877;SDS011;10101;52.204;9.910;2024-01-07T13:13:15;10.20;;;6.17;;
19877;SDS011;10101;52.204;9.910;2024-01-07T13:15:42;30.27;;;18.20;;
19877;SDS011;10101;52.204;9.910;2024-01-07T13:18:10;11.63;;;6.57;;
19877;SDS011;10101;52.204;9.910;2024-01-07T13:20:38;6.93;;;3.83;;
19877;SDS011;10101;52.204;9.910;2024-01-07T13:23:05;12.70;;;6.27;;
19877;SDS011;10101;52.204;9.910;2024-01-07T13:25:33;8.10;;;4.37;;
19877;SDS011;10101;52.204;9.910;2024-01-07T13:28:00;9.50;;;4.53;;
19877;SDS011;10101;52.204;9.910;2024-01-07T13:30:29;23.87;;;14.33;;
19877;SDS011;10101;52.204;9.910;2024-01-07T13:32:56;7.63;;;4.30;;
19877;SDS011;10101;52.204;9.910;2024-01-07T13:35:23;6.67;;;4.30;;
19877;SDS011;10101;52.204;9.910;2024-01-07T13:37:50;4.20;;;3.20;;
19877;SDS011;10101;52.204;9.910;2024-01-07T13:40:18;11.47;;;7.60;;
19877;SDS011;10101;52.204;9.910;2024-01-07T13:42:45;6.73;;;5.17;;
19877;SDS011;10101;52.204;9.910;2024-01-07T13:45:15;4.33;;;3.13;;
19877;SDS011;10101;52.204;9.910;2024-01-07T13:47:46;5.27;;;2.93;;
19877;SDS011;10101;52.204;9.910;2024-01-07T13:50:13;6.20;;;3.70;;
19877;SDS011;10101;52.204;9.910;2024-01-07T13:52:40;7.73;;;4.57;;
19877;SDS011;10101;52.204;9.910;2024-01-07T13:55:07;9.60;;;5.50;;
19877;SDS011;10101;52.204;9.910;2024-01-07T13:57:34;5.33;;;2.83;;
19877;SDS011;10101;52.204;9.910;2024-01-07T14:00:01;5.87;;;3.40;;
19877;SDS011;10101;52.204;9.910;2024-01-07T14:02:33;6.60;;;3.07;;
19877;SDS011;10101;52.204;9.910;2024-01-07T14:05:01;4.63;;;3.33;;
19877;SDS011;10101;52.204;9.910;2024-01-07T14:07:28;4.63;;;3.13;;
19877;SDS011;10101;52.204;9.910;2024-01-07T14:09:54;4.07;;;2.83;;
19877;SDS011;10101;52.204;9.910;2024-01-07T14:12:21;12.00;;;9.63;;
19877;SDS011;10101;52.204;9.910;2024-01-07T14:14:48;16.53;;;10.60;;
19877;SDS011;10101;52.204;9.910;2024-01-07T14:17:15;6.50;;;4.67;;
19877;SDS011;10101;52.204;9.910;2024-01-07T14:19:42;8.10;;;6.10;;
19877;SDS011;10101;52.204;9.910;2024-01-07T14:22:13;8.50;;;5.57;;
19877;SDS011;10101;52.204;9.910;2024-01-07T14:24:41;5.27;;;3.40;;
19877;SDS011;10101;52.204;9.910;2024-01-07T14:27:08;5.90;;;4.00;;
19877;SDS011;10101;52.204;9.910;2024-01-07T14:29:36;5.13;;;3.40;;
19877;SDS011;10101;52.204;9.910;2024-01-07T14:32:03;4.67;;;3.53;;
19877;SDS011;10101;52.204;9.910;2024-01-07T14:34:31;4.30;;;3.00;;
19877;SDS011;10101;52.204;9.910;2024-01-07T14:36:59;6.37;;;3.37;;
19877;SDS011;10101;52.204;9.910;2024-01-07T14:39:27;7.30;;;3.30;;
19877;SDS011;10101;52.204;9.910;2024-01-07T14:41:56;5.47;;;3.20;;
19877;SDS011;10101;52.204;9.910;2024-01-07T14:44:22;7.03;;;4.40;;
19877;SDS011;10101;52.204;9.910;2024-01-07T14:46:49;6.73;;;3.40;;